createdAt,value
2022-07-28T00:00:27.307Z,97454.06
2022-07-28T00:02:53.312Z,97467.44
2022-07-28T00:05:19.345Z,97455.28
2022-07-28T00:07:45.838Z,97455.28
2022-07-28T00:10:11.785Z,97459.13
2022-07-28T00:12:37.775Z,97456.78
2022-07-28T00:15:04.510Z,97460.50
2022-07-28T00:17:31.121Z,97458.06
2022-07-28T00:19:57.183Z,97466.56
2022-07-28T00:22:24.112Z,97460.72
2022-07-28T00:24:50.095Z,97464.38
2022-07-28T00:27:18.902Z,97465.25
2022-07-28T00:29:50.236Z,97463.66
2022-07-28T00:32:16.729Z,97463.84
2022-07-28T00:34:42.817Z,97467.28
2022-07-28T00:37:08.784Z,97462.94
2022-07-28T00:39:39.491Z,97465.22
2022-07-28T00:42:05.423Z,97463.28
2022-07-28T00:44:31.373Z,97462.44
2022-07-28T00:46:57.414Z,97463.63
2022-07-28T00:49:23.431Z,97462.44
2022-07-28T00:51:49.415Z,97460.63
2022-07-28T00:54:15.689Z,97459.81
2022-07-28T00:56:42.000Z,97460.66
2022-07-28T00:59:07.929Z,97457.25
2022-07-28T01:01:33.971Z,97461.97
2022-07-28T01:03:59.956Z,97456.94
2022-07-28T01:06:25.903Z,97457.56
2022-07-28T01:08:51.892Z,97447.88
2022-07-28T01:11:18.319Z,97446.09
2022-07-28T01:13:44.959Z,97440.50
2022-07-28T01:16:11.921Z,97445.81
2022-07-28T01:18:38.250Z,97450.81
2022-07-28T01:21:04.991Z,97447.59
2022-07-28T01:23:31.875Z,97447.00
2022-07-28T01:25:57.828Z,97437.84
2022-07-28T01:28:23.766Z,97446.03
2022-07-28T01:30:49.810Z,97453.84
2022-07-28T01:33:15.810Z,97444.59
2022-07-28T01:35:41.759Z,97446.19
2022-07-28T01:38:07.739Z,97448.19
2022-07-28T01:40:33.679Z,97448.94
2022-07-28T01:42:59.616Z,97443.66
2022-07-28T01:45:25.600Z,97446.19
2022-07-28T01:47:51.895Z,97444.03
2022-07-28T01:50:17.888Z,97446.72
2022-07-28T01:52:44.126Z,97444.56
2022-07-28T01:55:10.064Z,97438.69
2022-07-28T01:57:36.031Z,97434.34
2022-07-28T02:00:02.020Z,97440.44
2022-07-28T02:02:27.977Z,97439.13
2022-07-28T02:04:54.691Z,97438.13
2022-07-28T02:07:21.599Z,97444.44
2022-07-28T02:09:47.555Z,97441.78
2022-07-28T02:12:13.512Z,97442.19
2022-07-28T02:14:39.707Z,97434.09
2022-07-28T02:17:05.655Z,97431.81
2022-07-28T02:19:31.596Z,97437.50
2022-07-28T02:21:57.587Z,97435.25
2022-07-28T02:24:24.258Z,97432.41
2022-07-28T02:26:50.217Z,97437.56
2022-07-28T02:29:33.865Z,97432.84
2022-07-28T02:32:02.148Z,97428.22
2022-07-28T02:34:28.175Z,97424.22
2022-07-28T02:36:54.138Z,97432.50
2022-07-28T02:39:21.073Z,97429.38
2022-07-28T02:41:47.069Z,97426.38
2022-07-28T02:44:13.234Z,97420.38
2022-07-28T02:46:39.405Z,97429.06
2022-07-28T02:49:05.510Z,97431.75
2022-07-28T02:51:31.500Z,97436.44
2022-07-28T02:53:57.445Z,97427.22
2022-07-28T02:56:23.432Z,97428.59
2022-07-28T02:58:49.381Z,97433.22
2022-07-28T03:01:15.703Z,97439.28
2022-07-28T03:03:44.119Z,97429.53
2022-07-28T03:06:10.214Z,97434.91
2022-07-28T03:08:36.165Z,97432.97
2022-07-28T03:11:02.153Z,97429.19
2022-07-28T03:13:28.096Z,97424.50
2022-07-28T03:15:54.041Z,97430.22
2022-07-28T03:18:20.042Z,97426.75
2022-07-28T03:20:45.979Z,97433.94
2022-07-28T03:23:11.913Z,97431.78
2022-07-28T03:25:37.896Z,97440.00
2022-07-28T03:28:03.849Z,97445.19
2022-07-28T03:30:29.837Z,97446.63
2022-07-28T03:32:55.843Z,97444.72
2022-07-28T03:35:21.796Z,97451.75
2022-07-28T03:37:47.725Z,97451.34
2022-07-28T03:40:13.702Z,97455.22
2022-07-28T03:42:40.209Z,97454.53
2022-07-28T03:45:06.950Z,97455.03
2022-07-28T03:47:33.755Z,97466.22
2022-07-28T03:49:59.746Z,97463.78
2022-07-28T03:52:26.045Z,97464.50
2022-07-28T03:54:52.094Z,97465.66
2022-07-28T03:57:18.027Z,97464.00
2022-07-28T03:59:43.969Z,97464.28
2022-07-28T04:02:10.042Z,97469.50
2022-07-28T04:04:36.002Z,97464.91
2022-07-28T04:07:01.963Z,97467.88
2022-07-28T04:09:27.944Z,97470.56
2022-07-28T04:11:53.884Z,97469.41
2022-07-28T04:14:20.098Z,97474.50
2022-07-28T04:16:46.510Z,97471.22
2022-07-28T04:19:12.526Z,97470.13
2022-07-28T04:21:38.467Z,97472.94
2022-07-28T04:24:04.478Z,97470.63
2022-07-28T04:26:30.426Z,97471.44
2022-07-28T04:28:56.388Z,97484.75
2022-07-28T04:31:22.485Z,97488.59
2022-07-28T04:33:48.486Z,97491.38
2022-07-28T04:36:14.427Z,97489.03
2022-07-28T04:38:40.411Z,97488.16
2022-07-28T04:41:06.351Z,97488.78
2022-07-28T04:43:32.292Z,97497.91
2022-07-28T04:45:58.359Z,97501.19
2022-07-28T04:48:25.075Z,97504.63
2022-07-28T04:50:51.799Z,97504.84
2022-07-28T04:53:18.739Z,97502.44
2022-07-28T04:55:44.713Z,97496.94
2022-07-28T04:58:10.706Z,97496.13
2022-07-28T05:00:37.121Z,97507.88
2022-07-28T05:03:03.079Z,97496.94
2022-07-28T05:05:29.024Z,97507.06
2022-07-28T05:07:55.007Z,97513.88
2022-07-28T05:10:20.955Z,97508.28
2022-07-28T05:12:46.903Z,97510.88
2022-07-28T05:15:13.733Z,97515.13
2022-07-28T05:17:40.489Z,97525.13
2022-07-28T05:20:07.123Z,97525.75
2022-07-28T05:22:33.153Z,97521.47
2022-07-28T05:24:59.433Z,97519.59
2022-07-28T05:27:25.378Z,97527.31
2022-07-28T05:29:51.821Z,97533.59
2022-07-28T05:32:18.235Z,97530.69
2022-07-28T05:34:44.420Z,97529.44
2022-07-28T05:37:10.397Z,97541.34
2022-07-28T05:39:36.342Z,97535.66
2022-07-28T05:42:02.312Z,97542.84
2022-07-28T05:44:28.308Z,97534.22
2022-07-28T05:46:55.127Z,97540.66
2022-07-28T05:49:21.130Z,97544.97
2022-07-28T05:51:47.241Z,97549.97
2022-07-28T05:54:13.418Z,97537.16
2022-07-28T05:56:39.601Z,97543.97
2022-07-28T05:59:05.579Z,97549.75
2022-07-28T06:01:31.593Z,97545.78
2022-07-28T06:04:25.713Z,97542.91
2022-07-28T06:06:43.554Z,97539.75
2022-07-28T06:09:09.519Z,97533.50
2022-07-28T06:11:35.450Z,97542.09
2022-07-28T06:14:01.522Z,97542.75
2022-07-28T06:16:27.789Z,97549.75
2022-07-28T06:18:53.857Z,97545.47
2022-07-28T06:21:19.853Z,97536.97
2022-07-28T06:23:46.049Z,97538.88
2022-07-28T06:26:12.018Z,97539.38
2022-07-28T06:28:38.285Z,97535.41
2022-07-28T06:31:04.296Z,97539.19
2022-07-28T06:33:30.239Z,97543.19
2022-07-28T06:35:56.241Z,97538.94
2022-07-28T06:38:22.575Z,97535.72
2022-07-28T06:40:49.232Z,97540.28
2022-07-28T06:43:16.274Z,97536.59
2022-07-28T06:45:43.005Z,97528.78
2022-07-28T06:48:09.745Z,97532.00
2022-07-28T06:50:36.696Z,97533.31
2022-07-28T06:53:03.334Z,97531.97
2022-07-28T06:55:35.244Z,97536.25
2022-07-28T06:58:02.656Z,97542.69
2022-07-28T07:00:29.327Z,97540.84
2022-07-28T07:02:55.931Z,97546.69
2022-07-28T07:05:22.221Z,97545.09
2022-07-28T07:07:48.615Z,97545.66
2022-07-28T07:10:15.140Z,97545.66
2022-07-28T07:12:41.801Z,97547.47
2022-07-28T07:15:08.254Z,97545.03
2022-07-28T07:17:34.363Z,97547.91
2022-07-28T07:20:00.899Z,97536.78
2022-07-28T07:22:28.058Z,97546.53
2022-07-28T07:24:57.132Z,97538.22
2022-07-28T07:27:24.743Z,97545.78
2022-07-28T07:29:51.301Z,97546.72
2022-07-28T07:32:17.547Z,97547.88
2022-07-28T07:34:44.362Z,97546.50
2022-07-28T07:37:10.876Z,97547.28
2022-07-28T07:39:37.522Z,97549.84
2022-07-28T07:42:04.285Z,97548.16
2022-07-28T07:44:30.775Z,97538.19
2022-07-28T07:46:57.356Z,97542.84
2022-07-28T07:49:24.238Z,97551.44
2022-07-28T07:51:50.622Z,97540.41
2022-07-28T07:54:17.598Z,97540.03
2022-07-28T07:56:45.402Z,97544.03
2022-07-28T07:59:12.210Z,97544.81
2022-07-28T08:01:40.469Z,97546.75
2022-07-28T08:04:07.792Z,97544.38
2022-07-28T08:06:34.844Z,97546.66
2022-07-28T08:09:02.298Z,97544.03
2022-07-28T08:11:29.310Z,97540.41
2022-07-28T08:13:55.574Z,97547.53
2022-07-28T08:16:22.312Z,97538.56
2022-07-28T08:18:49.090Z,97541.25
2022-07-28T08:21:15.449Z,97541.53
2022-07-28T08:23:41.658Z,97544.19
2022-07-28T08:26:08.685Z,97543.41
2022-07-28T08:28:35.321Z,97542.06
2022-07-28T08:31:01.858Z,97541.13
2022-07-28T08:33:28.728Z,97540.09
2022-07-28T08:35:55.179Z,97534.97
2022-07-28T08:38:21.569Z,97529.94
2022-07-28T08:40:48.304Z,97536.16
2022-07-28T08:43:14.949Z,97526.44
2022-07-28T08:45:42.297Z,97525.97
2022-07-28T08:48:09.787Z,97527.84
2022-07-28T08:50:36.558Z,97525.97
2022-07-28T08:53:03.039Z,97531.47
2022-07-28T08:55:32.036Z,97520.03
2022-07-28T08:57:59.073Z,97517.53
2022-07-28T09:00:25.523Z,97519.25
2022-07-28T09:02:52.540Z,97521.41
2022-07-28T09:05:19.297Z,97517.75
2022-07-28T09:07:45.539Z,97526.66
2022-07-28T09:10:12.235Z,97518.94
2022-07-28T09:12:38.836Z,97521.94
2022-07-28T09:15:05.563Z,97520.97
2022-07-28T09:17:32.365Z,97524.44
2022-07-28T09:19:58.780Z,97532.50
2022-07-28T09:22:25.558Z,97532.94
2022-07-28T09:24:52.040Z,97531.28
2022-07-28T09:27:18.486Z,97522.41
2022-07-28T09:29:45.140Z,97535.28
2022-07-28T09:32:12.085Z,97525.47
2022-07-28T09:34:38.828Z,97516.50
2022-07-28T09:37:05.528Z,97513.91
2022-07-28T09:39:32.427Z,97520.44
2022-07-28T09:41:59.096Z,97513.59
2022-07-28T09:44:26.247Z,97510.53
2022-07-28T09:46:53.216Z,97513.91
2022-07-28T09:49:22.812Z,97509.28
2022-07-28T09:51:51.867Z,97508.13
2022-07-28T09:54:19.028Z,97505.59
2022-07-28T09:56:45.937Z,97509.81
2022-07-28T09:59:12.843Z,97505.50
2022-07-28T10:01:41.835Z,97507.72
2022-07-28T10:04:07.802Z,97498.84
2022-07-28T10:06:34.161Z,97498.53
2022-07-28T10:09:00.737Z,97494.19
2022-07-28T10:11:27.426Z,97495.63
2022-07-28T10:13:53.801Z,97491.63
2022-07-28T10:16:21.034Z,97487.00
2022-07-28T10:18:47.199Z,97486.03
2022-07-28T10:21:13.913Z,97486.28
2022-07-28T10:23:40.567Z,97478.00
2022-07-28T10:26:06.566Z,97476.97
2022-07-28T10:28:42.313Z,97478.28
2022-07-28T10:31:08.944Z,97474.22
2022-07-28T10:33:35.359Z,97467.19
2022-07-28T10:36:02.079Z,97463.56
2022-07-28T10:38:28.478Z,97456.75
2022-07-28T10:40:55.080Z,97468.38
2022-07-28T10:43:21.505Z,97458.31
2022-07-28T10:46:05.081Z,97465.44
2022-07-28T10:48:32.072Z,97463.63
2022-07-28T10:50:58.895Z,97463.47
2022-07-28T10:53:25.508Z,97459.59
2022-07-28T10:55:53.269Z,97461.91
2022-07-28T10:58:25.075Z,97460.75
2022-07-28T11:01:05.540Z,97457.44
2022-07-28T11:03:33.157Z,97455.94
2022-07-28T11:06:00.200Z,97452.28
2022-07-28T11:08:27.522Z,97452.16
2022-07-28T11:10:58.912Z,97448.75
2022-07-28T11:13:33.877Z,97438.41
2022-07-28T11:16:00.747Z,97434.38
2022-07-28T11:18:28.577Z,97436.38
2022-07-28T11:20:56.384Z,97444.69
2022-07-28T11:23:25.463Z,97434.81
2022-07-28T11:25:57.066Z,97435.53
2022-07-28T11:28:23.798Z,97430.06
2022-07-28T11:30:50.611Z,97428.41
2022-07-28T11:33:16.935Z,97427.34
2022-07-28T11:35:43.560Z,97429.31
2022-07-28T11:38:10.190Z,97434.78
2022-07-28T11:40:36.360Z,97429.50
2022-07-28T11:43:02.889Z,97434.41
2022-07-28T11:45:38.813Z,97428.00
2022-07-28T11:48:07.632Z,97426.03
2022-07-28T11:53:24.912Z,97422.22
2022-07-28T11:56:02.544Z,97419.19
2022-07-28T11:58:29.460Z,97412.72
2022-07-28T12:00:55.911Z,97414.63
2022-07-28T12:03:26.125Z,97407.06
2022-07-28T12:06:04.635Z,97413.59
2022-07-28T12:08:31.823Z,97402.16
2022-07-28T12:10:57.853Z,97401.69
2022-07-28T12:13:24.325Z,97395.22
2022-07-28T12:15:50.379Z,97394.41
2022-07-28T12:18:16.372Z,97397.28
2022-07-28T12:20:43.107Z,97391.63
2022-07-28T12:23:14.949Z,97390.66
2022-07-28T12:25:40.930Z,97392.69
2022-07-28T12:28:07.067Z,97385.03
2022-07-28T12:30:33.930Z,97386.16
2022-07-28T12:33:00.870Z,97389.53
2022-07-28T12:35:27.871Z,97394.09
2022-07-28T12:37:54.245Z,97382.38
2022-07-28T12:40:27.608Z,97379.75
2022-07-28T12:42:53.969Z,97387.19
2022-07-28T12:45:20.718Z,97379.78
2022-07-28T12:47:47.170Z,97375.25
2022-07-28T12:50:13.947Z,97370.03
2022-07-28T12:52:40.146Z,97373.78
2022-07-28T12:55:06.619Z,97374.66
2022-07-28T12:57:33.376Z,97372.69
2022-07-28T12:59:59.903Z,97364.63
2022-07-28T13:02:26.251Z,97369.34
2022-07-28T13:04:53.678Z,97366.88
2022-07-28T13:07:20.162Z,97359.03
2022-07-28T13:09:50.163Z,97355.66
2022-07-28T13:12:20.122Z,97354.13
2022-07-28T13:14:46.781Z,97355.16
2022-07-28T13:17:12.730Z,97347.78
2022-07-28T13:19:39.637Z,97342.41
2022-07-28T13:22:09.357Z,97345.34
2022-07-28T13:24:36.076Z,97344.19
2022-07-28T13:27:03.641Z,97339.00
2022-07-28T13:29:30.249Z,97341.47
2022-07-28T13:31:56.984Z,97341.34
2022-07-28T13:34:23.724Z,97344.66
2022-07-28T13:36:50.422Z,97329.16
2022-07-28T13:39:16.888Z,97332.38
2022-07-28T13:41:57.401Z,97328.44
2022-07-28T13:44:25.408Z,97325.81
2022-07-28T13:46:51.880Z,97324.19
2022-07-28T13:49:17.877Z,97319.69
2022-07-28T13:51:48.173Z,97322.78
2022-07-28T13:54:14.966Z,97313.47
2022-07-28T13:56:41.475Z,97318.53
2022-07-28T13:59:08.759Z,97317.09
2022-07-28T14:01:35.636Z,97310.69
2022-07-28T14:04:03.312Z,97313.53
2022-07-28T14:06:29.502Z,97321.13
2022-07-28T14:08:56.503Z,97307.03
2022-07-28T14:11:22.830Z,97298.75
2022-07-28T14:13:49.340Z,97298.81
2022-07-28T14:16:16.029Z,97297.16
2022-07-28T14:18:42.452Z,97300.91
2022-07-28T14:21:08.425Z,97296.94
2022-07-28T14:23:34.683Z,97301.25
2022-07-28T14:26:25.175Z,97301.38
2022-07-28T14:28:47.572Z,97305.38
2022-07-28T14:31:13.575Z,97297.16
2022-07-28T14:33:45.583Z,97290.50
2022-07-28T14:36:12.512Z,97287.72
2022-07-28T14:38:54.594Z,97287.28
2022-07-28T14:41:20.670Z,97278.50
2022-07-28T14:43:46.606Z,97281.00
2022-07-28T14:46:17.790Z,97277.72
2022-07-28T14:48:47.444Z,97275.41
2022-07-28T14:51:13.411Z,97277.56
2022-07-28T14:53:43.387Z,97271.16
2022-07-28T14:56:17.929Z,97274.50
2022-07-28T14:58:43.873Z,97275.38
2022-07-28T15:01:09.844Z,97263.72
2022-07-28T15:03:36.599Z,97260.97
2022-07-28T15:06:02.685Z,97262.56
2022-07-28T15:08:29.428Z,97262.97
2022-07-28T15:10:55.599Z,97257.34
2022-07-28T15:13:21.551Z,97250.19
2022-07-28T15:15:47.581Z,97255.09
2022-07-28T15:18:14.554Z,97246.34
2022-07-28T15:20:40.519Z,97247.56
2022-07-28T15:23:06.495Z,97247.69
2022-07-28T15:25:32.491Z,97249.72
2022-07-28T15:27:58.587Z,97242.69
2022-07-28T15:30:24.531Z,97252.00
2022-07-28T15:32:56.904Z,97248.50
2022-07-28T15:35:23.215Z,97247.34
2022-07-28T15:37:49.203Z,97244.78
2022-07-28T15:40:15.189Z,97241.31
2022-07-28T15:42:41.163Z,97244.13
2022-07-28T15:45:07.124Z,97236.47
2022-07-28T15:47:33.109Z,97234.00
2022-07-28T15:50:00.789Z,97229.41
2022-07-28T15:52:27.646Z,97237.94
2022-07-28T15:54:54.378Z,97241.31
2022-07-28T15:57:20.385Z,97237.09
2022-07-28T15:59:50.157Z,97240.06
2022-07-28T16:02:17.693Z,97236.94
2022-07-28T16:04:51.467Z,97235.34
2022-07-28T16:07:20.267Z,97233.19
2022-07-28T16:09:48.436Z,97240.22
2022-07-28T16:12:14.601Z,97236.81
2022-07-28T16:14:41.888Z,97227.69
2022-07-28T16:17:08.110Z,97238.34
2022-07-28T16:19:48.649Z,97231.25
2022-07-28T16:22:15.777Z,97224.84
2022-07-28T16:24:41.706Z,97226.44
2022-07-28T16:27:07.643Z,97224.94
2022-07-28T16:29:33.631Z,97218.47
2022-07-28T16:31:59.580Z,97210.78
2022-07-28T16:34:25.529Z,97215.16
2022-07-28T16:36:51.532Z,97211.19
2022-07-28T16:39:17.484Z,97213.31
2022-07-28T16:41:47.441Z,97214.78
2022-07-28T16:44:14.438Z,97216.03
2022-07-28T16:46:41.388Z,97217.25
2022-07-28T16:49:07.428Z,97221.00
2022-07-28T16:51:34.093Z,97218.31
2022-07-28T16:54:00.031Z,97217.59
2022-07-28T16:56:25.971Z,97222.84
2022-07-28T16:58:51.956Z,97217.22
2022-07-28T17:01:17.938Z,97214.78
2022-07-28T17:03:45.447Z,97221.03
2022-07-28T17:06:11.485Z,97221.38
2022-07-28T17:08:37.440Z,97221.91
2022-07-28T17:11:03.380Z,97218.44
2022-07-28T17:13:31.503Z,97220.28
2022-07-28T17:15:57.502Z,97217.72
2022-07-28T17:18:23.480Z,97218.47
2022-07-28T17:20:49.463Z,97219.16
2022-07-28T17:23:15.398Z,97223.31
2022-07-28T17:26:35.542Z,97225.97
2022-07-28T17:28:27.946Z,97226.22
2022-07-28T17:30:53.969Z,97221.84
2022-07-28T17:33:20.654Z,97221.19
2022-07-28T17:35:46.631Z,97221.53
2022-07-28T17:38:12.638Z,97216.06
2022-07-28T17:40:38.584Z,97214.97
2022-07-28T17:43:06.113Z,97219.16
2022-07-28T17:45:32.369Z,97219.91
2022-07-28T17:47:59.016Z,97224.44
2022-07-28T17:50:25.034Z,97211.19
2022-07-28T17:52:50.988Z,97212.47
2022-07-28T17:55:16.951Z,97213.44
2022-07-28T17:57:46.032Z,97216.34
2022-07-28T18:00:12.942Z,97231.06
2022-07-28T18:02:38.948Z,97221.31
2022-07-28T18:05:06.331Z,97225.16
2022-07-28T18:07:48.572Z,97232.50
2022-07-28T18:10:17.325Z,97231.53
2022-07-28T18:12:50.856Z,97236.16
2022-07-28T18:15:16.806Z,97242.53
2022-07-28T18:17:54.860Z,97246.22
2022-07-28T18:20:21.770Z,97244.72
2022-07-28T18:22:47.791Z,97241.00
2022-07-28T18:25:13.724Z,97245.81
2022-07-28T18:27:39.760Z,97247.13
2022-07-28T18:30:07.159Z,97247.50
2022-07-28T18:32:33.099Z,97251.81
2022-07-28T18:34:59.063Z,97251.47
2022-07-28T18:37:25.050Z,97253.97
2022-07-28T18:39:50.997Z,97262.81
2022-07-28T18:42:16.940Z,97260.06
2022-07-28T18:44:44.602Z,97263.53
2022-07-28T18:47:11.263Z,97269.28
2022-07-28T18:49:38.156Z,97278.00
2022-07-28T18:52:04.236Z,97285.72
2022-07-28T18:54:30.341Z,97283.19
2022-07-28T18:56:56.418Z,97281.66
2022-07-28T18:59:22.407Z,97297.97
2022-07-28T19:01:48.426Z,97301.72
2022-07-28T19:04:14.604Z,97303.34
2022-07-28T19:06:40.811Z,97311.53
2022-07-28T19:09:06.866Z,97312.69
2022-07-28T19:11:32.806Z,97310.66
2022-07-28T19:13:58.887Z,97315.38
2022-07-28T19:16:24.922Z,97318.81
2022-07-28T19:18:50.920Z,97326.50
2022-07-28T19:21:18.318Z,97338.00
2022-07-28T19:23:44.278Z,97343.84
2022-07-28T19:26:10.213Z,97343.50
2022-07-28T19:28:36.200Z,97336.00
2022-07-28T19:31:10.644Z,97341.53
2022-07-28T19:33:36.874Z,97345.88
2022-07-28T19:36:08.896Z,97341.28
2022-07-28T19:38:34.843Z,97353.13
2022-07-28T19:41:00.823Z,97355.31
2022-07-28T19:43:26.900Z,97353.44
2022-07-28T19:45:52.901Z,97347.22
2022-07-28T19:48:20.233Z,97356.53
2022-07-28T19:50:50.894Z,97363.56
2022-07-28T19:53:17.232Z,97356.53
2022-07-28T19:55:43.247Z,97362.94
2022-07-28T19:58:16.778Z,97362.84
2022-07-28T20:00:42.748Z,97360.28
2022-07-28T20:03:13.569Z,97366.16
2022-07-28T20:05:54.681Z,97363.59
2022-07-28T20:11:11.293Z,97380.53
2022-07-28T20:13:37.291Z,97374.91
2022-07-28T20:16:03.237Z,97370.47
2022-07-28T20:18:29.184Z,97368.03
2022-07-28T20:20:55.337Z,97376.78
2022-07-28T20:23:21.297Z,97386.34
2022-07-28T20:25:48.037Z,97393.75
2022-07-28T20:28:14.013Z,97393.91
2022-07-28T20:30:40.112Z,97393.75
2022-07-28T20:33:06.117Z,97396.22
2022-07-28T20:35:32.862Z,97392.13
2022-07-28T20:37:58.837Z,97395.75
2022-07-28T20:40:24.776Z,97401.16
2022-07-28T20:42:53.131Z,97400.94
2022-07-28T20:45:19.422Z,97407.34
2022-07-28T20:47:45.373Z,97397.53
2022-07-28T20:50:11.376Z,97403.06
2022-07-28T20:52:37.331Z,97400.50
2022-07-28T20:55:03.270Z,97396.25
2022-07-28T20:57:29.340Z,97400.19
2022-07-28T20:59:55.275Z,97404.78
2022-07-28T21:02:22.018Z,97408.28
2022-07-28T21:04:50.274Z,97401.34
2022-07-28T21:07:16.614Z,97399.53
2022-07-28T21:10:02.958Z,97397.34
2022-07-28T21:12:28.897Z,97394.78
2022-07-28T21:14:54.882Z,97400.56
2022-07-28T21:17:20.901Z,97397.00
2022-07-28T21:19:51.329Z,97403.22
2022-07-28T21:22:19.181Z,97393.59
2022-07-28T21:24:45.166Z,97385.44
2022-07-28T21:27:11.855Z,97392.78
2022-07-28T21:29:37.809Z,97381.63
2022-07-28T21:32:05.955Z,97388.16
2022-07-28T21:34:32.113Z,97386.25
2022-07-28T21:37:00.318Z,97387.50
2022-07-28T21:39:27.462Z,97385.59
2022-07-28T21:41:53.404Z,97387.28
2022-07-28T21:44:19.358Z,97395.41
2022-07-28T21:46:45.360Z,97394.56
2022-07-28T21:49:11.406Z,97393.75
2022-07-28T21:51:37.392Z,97391.69
2022-07-28T21:54:03.416Z,97399.50
2022-07-28T21:56:29.405Z,97397.41
2022-07-28T21:58:55.343Z,97393.66
2022-07-28T22:01:21.381Z,97392.25
2022-07-28T22:03:47.344Z,97400.97
2022-07-28T22:06:13.280Z,97396.44
2022-07-28T22:08:39.267Z,97400.97
2022-07-28T22:11:05.217Z,97400.75
2022-07-28T22:13:31.164Z,97409.16
2022-07-28T22:15:57.140Z,97411.63
2022-07-28T22:18:23.074Z,97400.66
2022-07-28T22:20:49.010Z,97400.34
2022-07-28T22:23:28.633Z,97398.44
2022-07-28T22:25:55.336Z,97397.19
2022-07-28T22:28:29.993Z,97402.91
2022-07-28T22:30:56.485Z,97405.88
2022-07-28T22:33:23.329Z,97396.75
2022-07-28T22:35:49.283Z,97389.47
2022-07-28T22:38:15.221Z,97392.75
2022-07-28T22:40:41.199Z,97381.94
2022-07-28T22:43:07.137Z,97384.34
2022-07-28T22:45:49.539Z,97383.47
2022-07-28T22:48:17.427Z,97388.31
2022-07-28T22:50:43.369Z,97388.56
2022-07-28T22:53:09.317Z,97388.19
2022-07-28T22:58:19.663Z,97383.00
2022-07-28T23:00:45.792Z,97378.50
2022-07-28T23:03:15.153Z,97378.03
2022-07-28T23:05:41.969Z,97379.47
2022-07-28T23:08:08.004Z,97381.03
2022-07-28T23:10:36.577Z,97383.75
2022-07-28T23:13:02.580Z,97398.06
2022-07-28T23:15:39.751Z,97392.28
2022-07-28T23:18:07.413Z,97393.63
2022-07-28T23:20:33.454Z,97394.59
2022-07-28T23:22:59.452Z,97385.81
2022-07-28T23:25:25.462Z,97394.91
2022-07-28T23:27:51.489Z,97390.94
2022-07-28T23:30:17.470Z,97380.22
2022-07-28T23:32:43.453Z,97377.50
2022-07-28T23:35:09.508Z,97375.47
2022-07-28T23:37:35.500Z,97375.94
2022-07-28T23:40:01.843Z,97378.69
2022-07-28T23:42:27.880Z,97375.97
2022-07-28T23:44:53.880Z,97372.72
2022-07-28T23:47:19.914Z,97377.56
2022-07-28T23:49:45.980Z,97373.31
2022-07-28T23:52:11.962Z,97376.81
2022-07-28T23:54:37.969Z,97372.31
2022-07-28T23:57:04.013Z,97372.25
2022-07-28T23:59:30.031Z,97371.66
